Time;durP1;ratioP1;P1;durP2;ratioP2;P2;SDS_P1;SDS_P2;PMS_P1;PMS_P2;Temp;Humidity;BMP_temperature;BMP_pressure;BME280_temperature;BME280_humidity;BME280_pressure;Samples;Min_cycle;Max_cycle;Signal;HPM_P1;HPM_P2
2022/05/07 00:01:59;;;;;;;21.20;11.47;;;16.60;59.20;;;;;;5073292;28;20468;-68
2022/05/07 00:04:26;;;;;;;22.23;13.57;;;16.60;59.30;;;;;;5073259;28;20523;-68
2022/05/07 00:06:53;;;;;;;20.67;11.50;;;16.60;59.40;;;;;;5073085;28;20943;-68
2022/05/07 00:09:21;;;;;;;27.40;12.20;;;16.60;59.50;;;;;;5073083;28;20440;-68
2022/05/07 00:11:48;;;;;;;24.77;12.97;;;16.60;59.60;;;;;;5073027;28;20980;-68
2022/05/07 00:14:15;;;;;;;24.17;13.73;;;16.60;59.90;;;;;;5072960;28;20927;-68
2022/05/07 00:19:26;;;;;;;24.07;12.70;;;16.50;60.50;;;;;;5072891;28;20404;-67
2022/05/07 00:21:53;;;;;;;18.17;11.90;;;16.40;60.60;;;;;;5072910;28;20475;-68
2022/05/07 00:24:21;;;;;;;20.43;11.73;;;16.40;61.10;;;;;;5072769;28;20543;-67
2022/05/07 00:26:48;;;;;;;18.90;11.63;;;16.30;61.40;;;;;;5072991;28;20463;-67
2022/05/07 00:29:14;;;;;;;28.53;12.27;;;16.30;61.90;;;;;;5072816;28;20463;-68
2022/05/07 00:31:43;;;;;;;20.77;12.33;;;16.30;62.30;;;;;;5072793;28;20469;-68
2022/05/07 00:34:10;;;;;;;27.07;12.90;;;16.30;62.50;;;;;;5075159;28;20436;-68
2022/05/07 00:36:37;;;;;;;25.83;11.83;;;16.20;62.60;;;;;;5076614;28;20447;-68
2022/05/07 00:39:04;;;;;;;28.43;12.17;;;16.20;62.90;;;;;;5076437;28;20456;-68
2022/05/07 00:41:32;;;;;;;20.50;10.67;;;16.20;63.20;;;;;;5076083;28;20874;-68
2022/05/07 00:43:58;;;;;;;19.20;11.93;;;16.10;63.10;;;;;;5075905;28;20860;-68
2022/05/07 00:46:27;;;;;;;24.20;12.57;;;16.20;63.40;;;;;;5076536;28;20440;-68
2022/05/07 00:48:56;;;;;;;22.87;11.57;;;16.10;63.40;;;;;;5076230;28;20448;-68
2022/05/07 00:51:35;;;;;;;25.33;12.70;;;16.10;63.50;;;;;;5075813;28;20494;-68
2022/05/07 00:54:06;;;;;;;23.60;11.97;;;16.10;63.60;;;;;;5075860;28;20504;-68
2022/05/07 00:56:36;;;;;;;27.20;12.40;;;16.10;63.70;;;;;;5075935;28;20436;-68
2022/05/07 00:59:04;;;;;;;21.17;11.80;;;16.10;63.60;;;;;;5076255;28;20490;-68
2022/05/07 01:01:30;;;;;;;28.30;12.17;;;16.10;63.80;;;;;;5076281;28;20464;-68
2022/05/07 01:03:58;;;;;;;28.87;12.50;;;16.10;64.10;;;;;;5075980;28;20503;-68
2022/05/07 01:06:24;;;;;;;25.57;12.20;;;16.10;64.40;;;;;;5076022;28;20467;-68
2022/05/07 01:08:51;;;;;;;22.10;11.13;;;16.10;64.60;;;;;;5075931;28;20459;-68
2022/05/07 01:11:20;;;;;;;20.60;11.43;;;16.00;64.70;;;;;;5075731;28;20458;-68
2022/05/07 01:13:48;;;;;;;24.77;11.70;;;15.90;64.90;;;;;;5076001;28;20558;-68
2022/05/07 01:16:16;;;;;;;25.80;12.10;;;15.90;65.30;;;;;;5075630;28;20456;-68
2022/05/07 01:18:43;;;;;;;19.83;13.33;;;15.80;65.40;;;;;;5075550;28;20944;-68
2022/05/07 01:21:14;;;;;;;27.47;11.50;;;15.80;65.40;;;;;;5075466;28;20496;-68
2022/05/07 01:23:43;;;;;;;29.43;12.57;;;15.80;65.60;;;;;;5075608;28;20475;-68
2022/05/07 01:26:10;;;;;;;23.53;12.80;;;15.80;65.70;;;;;;5075542;28;20459;-68
2022/05/07 01:28:37;;;;;;;26.17;12.00;;;15.80;65.70;;;;;;5075704;28;20453;-68
2022/05/07 01:31:05;;;;;;;25.47;12.20;;;15.80;65.90;;;;;;5075659;28;20496;-68
2022/05/07 01:33:33;;;;;;;23.00;11.33;;;15.80;66.00;;;;;;5075523;28;20472;-68
2022/05/07 01:36:01;;;;;;;27.13;11.53;;;15.70;66.00;;;;;;5075478;28;20457;-68
2022/05/07 01:38:29;;;;;;;25.77;11.90;;;15.70;66.10;;;;;;5075376;28;20502;-68
2022/05/07 01:40:55;;;;;;;22.87;12.90;;;15.70;66.40;;;;;;5075153;28;20472;-68
2022/05/07 01:43:26;;;;;;;20.37;10.90;;;15.70;66.70;;;;;;5075821;28;20484;-68
2022/05/07 01:45:53;;;;;;;26.00;11.90;;;15.60;66.70;;;;;;5075621;28;20437;-68
2022/05/07 01:48:19;;;;;;;24.37;11.77;;;15.60;66.90;;;;;;5075155;28;20463;-68
2022/05/07 01:50:46;;;;;;;25.97;11.90;;;15.60;67.10;;;;;;5075200;28;20448;-68
2022/05/07 01:53:14;;;;;;;23.90;12.00;;;15.50;67.20;;;;;;5075193;28;20444;-68
2022/05/07 01:55:43;;;;;;;27.13;12.77;;;15.50;67.50;;;;;;5075291;28;20488;-68
2022/05/07 01:58:11;;;;;;;24.40;11.27;;;15.50;67.80;;;;;;5074997;28;20448;-68
2022/05/07 02:00:40;;;;;;;18.67;10.23;;;15.50;67.80;;;;;;5074868;28;20487;-68
2022/05/07 02:03:07;;;;;;;21.40;12.50;;;15.40;68.00;;;;;;5074569;28;20866;-68
2022/05/07 02:05:34;;;;;;;27.43;13.10;;;15.40;68.30;;;;;;5074693;28;20936;-68
2022/05/07 02:08:01;;;;;;;25.67;12.33;;;15.40;68.40;;;;;;5074865;28;20456;-68
2022/05/07 02:10:29;;;;;;;18.97;11.20;;;15.40;68.40;;;;;;5074514;28;20868;-68
2022/05/07 02:12:57;;;;;;;26.00;12.90;;;15.40;68.50;;;;;;5074793;28;20472;-68
2022/05/07 02:15:25;;;;;;;22.60;12.80;;;15.40;68.90;;;;;;5074392;28;20841;-68
2022/05/07 02:17:51;;;;;;;26.10;13.73;;;15.40;69.10;;;;;;5074656;28;20429;-68
2022/05/07 02:20:18;;;;;;;19.13;11.87;;;15.40;69.50;;;;;;5074637;28;20454;-68
2022/05/07 02:22:45;;;;;;;22.77;11.03;;;15.40;69.60;;;;;;5074494;28;20460;-68
2022/05/07 02:25:12;;;;;;;23.13;12.10;;;15.30;69.50;;;;;;5074437;28;20449;-68
2022/05/07 02:27:41;;;;;;;22.30;12.40;;;15.30;69.70;;;;;;5074538;28;20445;-68
2022/05/07 02:30:10;;;;;;;19.47;12.00;;;15.30;70.00;;;;;;5074599;28;20474;-68
2022/05/07 02:32:37;;;;;;;24.27;13.70;;;15.30;70.30;;;;;;5074822;28;20464;-68
2022/05/07 02:35:04;;;;;;;29.60;12.17;;;15.30;70.50;;;;;;5074011;28;20967;-68
2022/05/07 02:37:31;;;;;;;22.70;12.50;;;15.20;70.50;;;;;;5074714;28;20448;-67
2022/05/07 02:39:58;;;;;;;20.20;11.20;;;15.20;71.00;;;;;;5074257;28;20491;-68
2022/05/07 02:42:39;;;;;;;14.97;11.97;;;15.20;71.20;;;;;;5073881;28;20484;-68
2022/05/07 02:45:09;;;;;;;22.73;11.33;;;15.10;71.20;;;;;;5072725;28;20484;-68
2022/05/07 02:47:37;;;;;;;22.07;11.83;;;15.10;71.50;;;;;;5074009;28;20452;-68
2022/05/07 02:50:04;;;;;;;24.30;12.00;;;15.10;72.00;;;;;;5074098;28;20464;-67
2022/05/07 02:52:33;;;;;;;21.00;12.80;;;15.00;72.20;;;;;;5073642;28;20854;-68
2022/05/07 02:55:00;;;;;;;24.30;13.40;;;15.10;72.70;;;;;;5073699;28;21021;-68
2022/05/07 02:57:27;;;;;;;19.97;11.67;;;15.00;72.60;;;;;;5073125;28;20983;-68
2022/05/07 02:59:54;;;;;;;30.53;13.57;;;15.00;72.70;;;;;;5073605;28;20460;-68
2022/05/07 03:02:22;;;;;;;26.97;13.90;;;15.00;72.70;;;;;;5073503;28;20464;-68
2022/05/07 03:04:49;;;;;;;22.87;12.70;;;15.00;73.00;;;;;;5073899;28;20484;-68
2022/05/07 03:07:16;;;;;;;28.97;14.83;;;15.00;73.10;;;;;;5073912;28;20502;-68
2022/05/07 03:09:44;;;;;;;23.73;13.33;;;15.00;73.40;;;;;;5073798;28;20452;-68
2022/05/07 03:12:11;;;;;;;29.50;13.37;;;15.00;73.50;;;;;;5073628;28;20476;-68
2022/05/07 03:14:38;;;;;;;19.30;13.13;;;15.00;73.70;;;;;;5073751;28;20451;-68
2022/05/07 03:17:05;;;;;;;22.70;12.57;;;15.00;73.90;;;;;;5073351;28;20460;-68
2022/05/07 03:19:33;;;;;;;26.73;12.80;;;15.00;74.20;;;;;;5073636;28;20440;-68
2022/05/07 03:22:00;;;;;;;25.53;12.40;;;15.10;74.60;;;;;;5073440;28;20476;-70
2022/05/07 03:24:27;;;;;;;29.20;12.87;;;15.10;74.60;;;;;;5073568;28;20892;-68
2022/05/07 03:26:54;;;;;;;26.00;13.40;;;15.10;74.80;;;;;;5073773;28;20441;-68
2022/05/07 03:29:21;;;;;;;25.80;14.00;;;15.10;75.00;;;;;;5073544;28;20453;-68
2022/05/07 03:31:49;;;;;;;31.20;15.77;;;15.10;75.10;;;;;;5073233;28;20984;-68
2022/05/07 03:34:16;;;;;;;24.37;12.23;;;15.20;75.30;;;;;;5073170;28;20832;-68
2022/05/07 03:36:44;;;;;;;19.97;13.27;;;15.10;75.30;;;;;;5073391;28;20449;-68
2022/05/07 03:39:12;;;;;;;22.63;12.77;;;15.10;76.40;;;;;;5073342;28;20448;-68
2022/05/07 03:41:38;;;;;;;23.47;13.00;;;15.10;75.80;;;;;;5073446;28;20472;-68
2022/05/07 03:44:05;;;;;;;22.17;13.80;;;15.10;76.00;;;;;;5073125;28;20488;-68
2022/05/07 03:46:32;;;;;;;23.73;12.97;;;15.10;76.10;;;;;;5073309;28;20482;-68
2022/05/07 03:48:59;;;;;;;22.93;12.27;;;15.10;76.30;;;;;;5073247;28;20448;-67
2022/05/07 03:51:26;;;;;;;23.07;13.67;;;15.10;76.30;;;;;;5073164;28;20484;-68
2022/05/07 03:53:53;;;;;;;22.57;13.43;;;15.00;76.20;;;;;;5072848;28;20951;-68
2022/05/07 03:56:20;;;;;;;18.53;12.60;;;15.00;76.10;;;;;;5073627;28;20453;-68
2022/05/07 03:58:47;;;;;;;20.30;11.93;;;15.00;76.10;;;;;;5073672;28;20445;-68
2022/05/07 04:01:15;;;;;;;15.17;11.63;;;15.00;76.40;;;;;;5073329;28;20472;-68
2022/05/07 04:03:41;;;;;;;21.60;13.40;;;15.00;76.60;;;;;;5072981;28;20567;-68
2022/05/07 04:06:08;;;;;;;20.13;11.97;;;15.10;76.80;;;;;;5073175;28;20437;-68
2022/05/07 04:08:35;;;;;;;22.43;12.47;;;15.00;76.70;;;;;;5074700;28;20474;-68
2022/05/07 04:11:03;;;;;;;18.00;13.17;;;15.10;76.80;;;;;;5076981;28;20476;-68
2022/05/07 04:13:30;;;;;;;24.30;13.53;;;15.10;77.10;;;;;;5077870;28;20471;-68
2022/05/07 04:15:57;;;;;;;18.40;13.33;;;15.00;76.90;;;;;;5077196;28;20532;-68
2022/05/07 04:18:23;;;;;;;21.00;13.73;;;15.00;77.00;;;;;;5076975;28;20463;-68
2022/05/07 04:20:50;;;;;;;18.03;12.90;;;15.00;77.20;;;;;;5076883;28;20448;-68
2022/05/07 04:23:17;;;;;;;24.17;12.93;;;15.00;77.40;;;;;;5076878;28;20448;-68
2022/05/07 04:25:44;;;;;;;20.17;13.07;;;15.00;77.30;;;;;;5076686;28;20875;-68
2022/05/07 04:28:12;;;;;;;22.10;13.40;;;14.90;77.20;;;;;;5076444;28;20947;-68
2022/05/07 04:30:39;;;;;;;26.87;13.87;;;14.80;77.30;;;;;;5076684;28;20927;-68
2022/05/07 04:33:06;;;;;;;15.20;12.63;;;14.90;77.50;;;;;;5076597;28;20460;-68
2022/05/07 04:35:33;;;;;;;18.43;13.40;;;14.80;77.60;;;;;;5076618;28;20441;-68
2022/05/07 04:38:00;;;;;;;21.43;14.83;;;14.80;77.80;;;;;;5076524;28;20995;-68
2022/05/07 04:40:28;;;;;;;25.20;13.43;;;14.90;78.00;;;;;;5076510;28;20444;-68
2022/05/07 04:42:54;;;;;;;19.80;13.40;;;14.90;77.80;;;;;;5075901;28;20479;-68
2022/05/07 04:45:23;;;;;;;18.80;13.50;;;14.90;77.70;;;;;;5076485;28;20476;-68
2022/05/07 04:47:49;;;;;;;26.20;13.97;;;14.90;77.60;;;;;;5076151;28;20456;-68
2022/05/07 04:50:16;;;;;;;22.53;12.17;;;14.90;77.70;;;;;;5076303;28;20455;-68
2022/05/07 04:52:43;;;;;;;20.33;12.87;;;15.00;78.00;;;;;;5076204;28;20835;-68
2022/05/07 04:55:10;;;;;;;21.80;14.43;;;15.00;78.10;;;;;;5076292;28;20628;-68
2022/05/07 04:57:38;;;;;;;21.53;14.27;;;15.00;78.30;;;;;;5076180;28;20456;-68
2022/05/07 05:00:06;;;;;;;25.07;15.47;;;15.00;78.60;;;;;;5076032;28;20960;-68
2022/05/07 05:02:34;;;;;;;15.70;12.77;;;15.10;78.90;;;;;;5075696;28;20479;-68
2022/05/07 05:05:01;;;;;;;23.03;13.40;;;15.10;79.00;;;;;;5075668;28;21002;-68
2022/05/07 05:07:28;;;;;;;23.87;15.23;;;15.10;79.20;;;;;;5075931;28;20448;-68
2022/05/07 05:09:55;;;;;;;26.13;13.97;;;15.20;79.40;;;;;;5076106;28;20445;-68
2022/05/07 05:12:22;;;;;;;24.03;13.80;;;15.20;79.50;;;;;;5075593;28;20876;-68
2022/05/07 05:15:04;;;;;;;26.00;13.60;;;15.30;79.70;;;;;;5075648;28;20959;-68
2022/05/07 05:17:34;;;;;;;20.13;15.60;;;15.30;79.70;;;;;;5076047;28;20433;-68
2022/05/07 05:20:01;;;;;;;21.53;13.57;;;15.30;80.90;;;;;;5075409;28;20437;-67
2022/05/07 05:22:28;;;;;;;23.00;13.57;;;15.40;80.40;;;;;;5075521;28;20461;-68
2022/05/07 05:24:55;;;;;;;21.17;14.30;;;15.40;80.70;;;;;;5075291;28;20476;-68
2022/05/07 05:27:21;;;;;;;22.13;13.00;;;15.50;80.80;;;;;;5075425;28;20452;-67
2022/05/07 05:29:48;;;;;;;20.93;13.27;;;15.50;80.70;;;;;;5075969;28;20440;-68
2022/05/07 05:32:17;;;;;;;19.17;14.33;;;15.60;81.00;;;;;;5075548;28;20480;-67
2022/05/07 05:34:47;;;;;;;20.43;13.33;;;15.70;81.20;;;;;;5075696;28;20453;-68
2022/05/07 05:37:15;;;;;;;24.33;15.80;;;15.70;81.30;;;;;;5075713;28;20463;-68
2022/05/07 05:39:42;;;;;;;25.07;15.60;;;15.80;80.90;;;;;;5075464;28;20483;-68
2022/05/07 05:42:09;;;;;;;25.23;17.07;;;16.00;78.70;;;;;;5075185;28;20827;-68
2022/05/07 05:44:38;;;;;;;31.70;15.53;;;16.00;77.20;;;;;;5074942;28;20496;-68
2022/05/07 05:47:05;;;;;;;20.50;15.90;;;16.10;76.50;;;;;;5075063;28;20820;-68
2022/05/07 05:49:33;;;;;;;29.87;16.90;;;16.20;75.80;;;;;;5075155;28;20453;-68
2022/05/07 05:52:01;;;;;;;23.33;15.57;;;16.40;74.20;;;;;;5075298;28;20477;-68
2022/05/07 05:54:29;;;;;;;24.23;15.63;;;16.40;73.40;;;;;;5075232;28;20456;-68
2022/05/07 05:56:55;;;;;;;20.50;14.07;;;16.50;73.30;;;;;;5075252;28;20445;-68
2022/05/07 05:59:22;;;;;;;21.10;13.57;;;16.60;73.40;;;;;;5074862;28;20835;-68
2022/05/07 06:01:49;;;;;;;21.93;16.27;;;16.70;74.50;;;;;;5075270;28;20473;-68
2022/05/07 06:04:15;;;;;;;24.10;16.37;;;16.80;74.60;;;;;;5075099;28;20487;-68
2022/05/07 06:06:43;;;;;;;17.33;13.40;;;17.00;74.70;;;;;;5075080;28;20460;-68
2022/05/07 06:09:11;;;;;;;19.90;14.37;;;17.10;73.50;;;;;;5074973;28;20449;-69
2022/05/07 06:11:38;;;;;;;24.13;15.23;;;17.20;72.50;;;;;;5074666;28;20994;-68
2022/05/07 06:14:05;;;;;;;22.30;13.80;;;17.30;71.60;;;;;;5074637;28;20962;-68
2022/05/07 06:16:32;;;;;;;25.97;16.63;;;17.40;70.50;;;;;;5074916;28;20966;-67
2022/05/07 06:18:58;;;;;;;19.07;14.40;;;17.50;70.00;;;;;;5074943;28;20449;-68
2022/05/07 06:21:26;;;;;;;18.90;14.23;;;17.60;69.60;;;;;;5074292;28;21001;-68
2022/05/07 06:23:53;;;;;;;21.13;14.60;;;17.60;68.90;;;;;;5074426;28;20445;-67
2022/05/07 06:29:05;;;;;;;19.03;15.33;;;17.80;69.20;;;;;;5074426;28;20775;-68
2022/05/07 06:31:32;;;;;;;16.90;13.27;;;17.80;68.90;;;;;;5073232;28;20467;-68
2022/05/07 06:33:59;;;;;;;29.50;13.50;;;17.90;68.70;;;;;;5074246;28;20451;-68
2022/05/07 06:36:27;;;;;;;28.50;14.73;;;18.00;68.50;;;;;;5074301;28;20484;-67
2022/05/07 06:38:54;;;;;;;24.13;14.60;;;18.00;69.00;;;;;;5074216;28;20453;-68
2022/05/07 06:41:22;;;;;;;17.60;13.03;;;18.10;68.40;;;;;;5074315;28;20571;-68
2022/05/07 06:43:49;;;;;;;21.80;14.67;;;18.20;67.70;;;;;;5073929;28;20453;-68
2022/05/07 06:46:16;;;;;;;19.13;11.87;;;18.20;67.90;;;;;;5074299;28;20480;-68
2022/05/07 06:48:43;;;;;;;20.87;13.47;;;18.40;68.40;;;;;;5074117;28;20449;-68
2022/05/07 06:51:10;;;;;;;23.40;12.63;;;18.50;68.60;;;;;;5073898;28;20473;-69
2022/05/07 06:53:37;;;;;;;25.53;14.83;;;18.70;68.30;;;;;;5074278;28;20448;-68
2022/05/07 06:56:05;;;;;;;26.73;13.37;;;18.80;66.00;;;;;;5074445;28;20479;-68
2022/05/07 06:58:35;;;;;;;25.43;12.90;;;18.90;64.50;;;;;;5074197;28;20456;-71
2022/05/07 07:01:03;;;;;;;28.63;12.80;;;19.10;64.50;;;;;;5073748;28;20487;-67
2022/05/07 07:03:31;;;;;;;30.33;12.67;;;19.30;63.90;;;;;;5074131;28;20445;-68
2022/05/07 07:05:59;;;;;;;19.67;11.83;;;19.40;62.30;;;;;;5073635;28;20477;-68
2022/05/07 07:08:28;;;;;;;27.80;11.70;;;19.50;62.30;;;;;;5073371;28;20459;-68
2022/05/07 07:10:55;;;;;;;23.83;12.03;;;19.50;59.60;;;;;;5073732;28;20476;-68
2022/05/07 07:13:22;;;;;;;20.53;11.50;;;19.50;59.70;;;;;;5073573;28;20471;-68
2022/05/07 07:15:50;;;;;;;17.77;11.23;;;19.60;58.80;;;;;;5073897;28;20448;-68
2022/05/07 07:18:17;;;;;;;18.43;11.27;;;19.60;58.70;;;;;;5073559;28;20547;-68
2022/05/07 07:20:48;;;;;;;14.53;10.20;;;19.70;59.70;;;;;;5073482;28;20448;-68
2022/05/07 07:23:15;;;;;;;17.30;11.37;;;19.70;58.80;;;;;;5073403;28;20433;-68
2022/05/07 07:25:42;;;;;;;14.03;10.60;;;19.80;58.80;;;;;;5073132;28;20861;-68
2022/05/07 07:28:10;;;;;;;17.40;9.90;;;19.80;57.70;;;;;;5073435;28;20452;-68
2022/05/07 07:30:37;;;;;;;18.90;12.17;;;20.00;59.90;;;;;;5073418;28;20445;-68
2022/05/07 07:33:06;;;;;;;14.97;11.80;;;20.20;58.70;;;;;;5073270;28;20440;-68
2022/05/07 07:35:34;;;;;;;16.60;11.83;;;20.30;59.10;;;;;;5073124;28;20936;-68
2022/05/07 07:38:01;;;;;;;16.67;12.77;;;20.50;57.90;;;;;;5073391;28;20453;-68
2022/05/07 07:40:29;;;;;;;12.73;11.00;;;20.50;56.60;;;;;;5073352;28;20456;-68
2022/05/07 07:42:55;;;;;;;14.67;11.83;;;20.60;57.60;;;;;;5073071;28;20465;-68
2022/05/07 07:48:08;;;;;;;18.37;12.90;;;20.90;57.90;;;;;;5073686;28;20522;-69
2022/05/07 07:50:38;;;;;;;13.37;11.97;;;21.10;56.80;;;;;;5073168;28;20455;-69
2022/05/07 07:53:06;;;;;;;13.33;11.93;;;21.20;57.00;;;;;;5073124;28;20929;-69
2022/05/07 07:55:34;;;;;;;14.13;10.30;;;21.30;57.00;;;;;;5073418;28;20453;-68
2022/05/07 07:58:02;;;;;;;16.23;11.00;;;21.50;56.10;;;;;;5073278;28;20449;-68
2022/05/07 08:00:30;;;;;;;17.00;11.90;;;21.70;54.60;;;;;;5073177;28;20955;-68
2022/05/07 08:02:59;;;;;;;14.13;12.67;;;21.90;52.50;;;;;;5072976;28;20461;-69
2022/05/07 08:05:29;;;;;;;14.00;10.97;;;22.00;52.60;;;;;;5072989;28;20480;-68
2022/05/07 08:13:33;;;;;;;21.50;13.07;;;22.40;54.40;;;;;;5067257;28;20791;-68
2022/05/07 08:16:00;;;;;;;14.83;12.17;;;22.50;53.90;;;;;;5072911;28;20488;-68
2022/05/07 08:18:27;;;;;;;15.27;13.43;;;22.60;54.30;;;;;;5072909;28;20818;-68
2022/05/07 08:20:56;;;;;;;18.13;12.77;;;22.80;53.50;;;;;;5072592;28;20951;-68
2022/05/07 08:23:24;;;;;;;20.83;12.87;;;22.80;53.40;;;;;;5072890;28;20467;-69
2022/05/07 08:25:51;;;;;;;15.53;12.67;;;22.80;53.50;;;;;;5072478;28;21030;-69
2022/05/07 08:28:19;;;;;;;14.80;12.90;;;22.70;51.80;;;;;;5072875;28;20449;-69
2022/05/07 08:30:46;;;;;;;17.00;12.93;;;22.60;52.30;;;;;;5072925;28;20449;-68
2022/05/07 08:33:13;;;;;;;16.43;14.73;;;22.50;52.00;;;;;;5072973;28;20518;-69
2022/05/07 08:35:40;;;;;;;17.30;15.07;;;22.50;53.90;;;;;;5072451;28;20830;-68
2022/05/07 08:38:08;;;;;;;16.57;14.80;;;22.40;54.40;;;;;;5072739;28;20444;-69
2022/05/07 08:40:34;;;;;;;18.23;15.40;;;22.30;55.50;;;;;;5072365;28;20460;-68
2022/05/07 08:43:03;;;;;;;23.33;16.30;;;22.30;55.20;;;;;;5072535;28;20460;-68
2022/05/07 08:45:29;;;;;;;17.10;15.40;;;22.20;55.00;;;;;;5072889;28;20475;-68
2022/05/07 08:47:56;;;;;;;16.63;15.00;;;22.30;56.00;;;;;;5072894;28;20463;-68
2022/05/07 08:50:23;;;;;;;18.43;16.63;;;22.30;56.40;;;;;;5072644;28;20453;-68
2022/05/07 08:52:50;;;;;;;19.53;16.90;;;22.50;56.20;;;;;;5072669;28;20488;-68
2022/05/07 08:55:19;;;;;;;19.03;17.13;;;22.70;55.60;;;;;;5074871;28;20449;-70
2022/05/07 08:57:49;;;;;;;20.27;17.20;;;22.90;54.50;;;;;;5076250;28;20975;-71
2022/05/07 09:00:17;;;;;;;20.07;17.97;;;23.00;54.90;;;;;;5076369;28;20456;-69
2022/05/07 09:02:46;;;;;;;17.83;15.93;;;23.20;55.10;;;;;;5076411;28;20831;-69
2022/05/07 09:05:14;;;;;;;19.83;17.73;;;23.40;54.30;;;;;;5075971;28;20480;-69
2022/05/07 09:07:52;;;;;;;18.03;16.13;;;23.50;55.00;;;;;;5076012;28;20452;-69
2022/05/07 09:10:20;;;;;;;22.93;17.20;;;23.60;54.70;;;;;;5076058;28;20781;-69
2022/05/07 09:12:47;;;;;;;20.10;17.90;;;23.60;54.40;;;;;;5075934;28;20480;-69
2022/05/07 09:15:14;;;;;;;20.43;17.00;;;23.70;54.00;;;;;;5075964;28;20452;-69
2022/05/07 09:17:41;;;;;;;20.03;18.00;;;23.80;53.40;;;;;;5075804;28;20456;-69
2022/05/07 09:20:13;;;;;;;17.83;16.07;;;24.00;54.00;;;;;;5076233;28;20468;-69
2022/05/07 09:22:51;;;;;;;21.30;18.50;;;24.10;54.70;;;;;;5076224;28;20468;-69
2022/05/07 09:25:24;;;;;;;23.97;18.13;;;24.30;52.80;;;;;;5075457;28;21042;-68
2022/05/07 09:27:56;;;;;;;19.03;17.00;;;24.40;51.90;;;;;;5075683;28;20452;-69
2022/05/07 09:30:24;;;;;;;19.53;16.30;;;24.40;51.20;;;;;;5076369;28;20445;-71
2022/05/07 09:32:54;;;;;;;18.50;15.43;;;24.50;51.40;;;;;;5076137;28;20460;-71
2022/05/07 09:38:06;;;;;;;19.83;17.10;;;24.60;52.10;;;;;;5076095;28;20404;-73
2022/05/07 09:40:39;;;;;;;20.30;17.90;;;24.90;51.60;;;;;;5076311;28;20444;-71
2022/05/07 09:43:07;;;;;;;19.17;17.13;;;25.10;48.60;;;;;;5075861;28;20437;-71
2022/05/07 09:45:36;;;;;;;19.37;17.43;;;25.40;49.50;;;;;;5075839;28;20992;-72
2022/05/07 09:48:04;;;;;;;20.73;16.63;;;25.40;48.40;;;;;;5075910;28;20444;-71
2022/05/07 09:50:46;;;;;;;18.93;17.00;;;25.40;47.80;;;;;;5075669;28;20944;-71
2022/05/07 09:58:46;;;;;;;19.00;15.40;;;25.70;45.40;;;;;;5076297;28;20443;-73
2022/05/07 10:01:28;;;;;;;17.03;15.00;;;25.70;44.90;;;;;;5076846;28;21025;-71
2022/05/07 10:04:06;;;;;;;24.33;16.10;;;25.80;46.10;;;;;;5076197;28;20432;-72
2022/05/07 10:06:48;;;;;;;15.70;14.10;;;26.00;45.00;;;;;;5075520;28;20460;-72
2022/05/07 10:09:33;;;;;;;17.63;15.10;;;26.20;45.10;;;;;;5076473;28;20486;-72
2022/05/07 10:12:02;;;;;;;18.40;15.20;;;26.20;44.80;;;;;;5076611;28;20469;-71
2022/05/07 10:14:30;;;;;;;17.33;15.37;;;26.20;44.40;;;;;;5076393;28;20445;-72
2022/05/07 10:16:59;;;;;;;19.07;16.27;;;26.10;45.70;;;;;;5077333;28;20894;-72
2022/05/07 10:19:38;;;;;;;20.10;16.07;;;26.10;45.80;;;;;;5077427;28;20440;-72
2022/05/07 10:22:17;;;;;;;18.93;15.20;;;26.00;43.40;;;;;;5076650;28;20477;-72
2022/05/07 10:24:45;;;;;;;19.03;15.37;;;25.80;43.40;;;;;;5077803;28;20429;-72
2022/05/07 10:27:26;;;;;;;17.70;14.20;;;25.80;44.00;;;;;;5076516;28;20492;-72
2022/05/07 10:30:04;;;;;;;15.75;12.88;;;25.90;45.00;;;;;;5076999;28;20442;-73
2022/05/07 10:32:31;;;;;;;14.63;11.97;;;26.00;44.30;;;;;;5076966;28;20222;-73
2022/05/07 10:34:58;;;;;;;15.00;13.47;;;26.00;43.10;;;;;;5077940;28;20452;-73
2022/05/07 10:37:24;;;;;;;17.17;13.03;;;26.00;42.90;;;;;;5078620;28;20448;-72
2022/05/07 10:39:53;;;;;;;11.67;10.50;;;26.20;43.80;;;;;;5078623;28;20433;-73
2022/05/07 10:42:22;;;;;;;14.73;13.20;;;26.50;42.20;;;;;;5076485;28;20472;-73
2022/05/07 10:44:50;;;;;;;16.37;14.73;;;27.00;41.00;;;;;;5075133;28;20533;-72
2022/05/07 10:47:20;;;;;;;15.60;13.00;;;27.60;40.30;;;;;;5074285;28;20507;-72
2022/05/07 10:49:54;;;;;;;17.27;11.77;;;28.20;37.60;;;;;;5074211;28;20866;-72
2022/05/07 10:52:35;;;;;;;16.53;12.73;;;28.80;35.40;;;;;;5074141;28;20472;-72
2022/05/07 10:55:10;;;;;;;15.03;13.03;;;29.50;33.90;;;;;;5074044;28;20444;-72
2022/05/07 10:57:43;;;;;;;15.70;12.43;;;30.10;31.80;;;;;;5074435;28;20428;-72
2022/05/07 11:00:13;;;;;;;15.43;12.73;;;30.70;30.30;;;;;;5074118;28;20440;-72
2022/05/07 11:02:40;;;;;;;16.27;14.57;;;31.10;29.50;;;;;;5074278;28;20464;-73
2022/05/07 11:05:08;;;;;;;16.77;15.00;;;31.40;30.00;;;;;;5073958;28;20440;-73
2022/05/07 11:07:35;;;;;;;18.80;14.50;;;31.60;29.70;;;;;;5073866;28;20495;-72
2022/05/07 11:10:03;;;;;;;17.30;15.60;;;32.10;30.40;;;;;;5073765;28;20535;-73
2022/05/07 11:12:30;;;;;;;16.27;12.80;;;32.40;30.00;;;;;;5073835;28;20499;-72
2022/05/07 11:14:58;;;;;;;18.73;16.90;;;32.80;29.20;;;;;;5073866;28;20447;-73
2022/05/07 11:17:30;;;;;;;17.40;15.60;;;33.50;27.50;;;;;;5074250;28;20447;-73
2022/05/07 11:19:57;;;;;;;16.23;14.30;;;33.80;27.30;;;;;;5073673;28;20523;-73
2022/05/07 11:22:25;;;;;;;16.03;14.47;;;34.30;26.50;;;;;;5073299;28;20471;-72
2022/05/07 11:24:56;;;;;;;15.73;14.13;;;34.70;25.70;;;;;;5073963;28;20444;-73
2022/05/07 11:27:25;;;;;;;14.77;13.37;;;35.20;25.80;;;;;;5073605;28;20504;-74
2022/05/07 11:29:53;;;;;;;13.77;12.57;;;35.90;25.80;;;;;;5073509;28;20812;-73
2022/05/07 11:32:22;;;;;;;14.60;13.30;;;36.60;23.60;;;;;;5073820;28;20503;-73
2022/05/07 11:34:48;;;;;;;13.80;12.40;;;37.20;23.30;;;;;;5073446;28;20479;-73
2022/05/07 11:37:17;;;;;;;15.67;14.17;;;37.80;22.60;;;;;;5073539;28;20251;-73
2022/05/07 11:39:49;;;;;;;14.52;13.13;;;38.30;21.40;;;;;;5073664;28;20201;-73
2022/05/07 11:42:30;;;;;;;15.80;13.13;;;38.60;21.00;;;;;;5073499;28;20225;-73
2022/05/07 11:47:53;;;;;;;11.70;10.43;;;39.20;20.40;;;;;;5073372;28;20210;-73
2022/05/07 11:50:25;;;;;;;12.85;11.52;;;39.20;21.20;;;;;;5073651;28;20189;-73
2022/05/07 11:52:52;;;;;;;12.40;11.30;;;39.30;20.90;;;;;;5073306;28;20244;-74
2022/05/07 11:55:25;;;;;;;14.55;13.15;;;39.00;20.30;;;;;;5073332;28;20206;-73
2022/05/07 11:57:52;;;;;;;17.52;13.73;;;38.70;21.00;;;;;;5073121;28;20668;-73
2022/05/07 12:00:21;;;;;;;14.33;12.90;;;38.10;21.50;;;;;;5073631;28;20209;-73
2022/05/07 12:02:54;;;;;;;14.80;12.90;;;37.50;22.00;;;;;;5073230;28;20222;-73
2022/05/07 12:05:22;;;;;;;14.10;11.23;;;37.00;22.20;;;;;;5073382;28;20239;-73
2022/05/07 12:07:50;;;;;;;14.07;12.67;;;36.50;23.10;;;;;;5073333;28;20217;-73
2022/05/07 12:10:18;;;;;;;14.93;12.30;;;36.20;23.40;;;;;;5073071;28;20982;-73
2022/05/07 12:12:45;;;;;;;22.00;14.97;;;35.90;23.70;;;;;;5073397;28;20495;-73
2022/05/07 12:15:12;;;;;;;18.57;16.63;;;35.70;24.10;;;;;;5073470;28;20822;-73
2022/05/07 12:17:54;;;;;;;17.80;16.17;;;35.10;24.20;;;;;;5074020;28;20448;-72
2022/05/07 12:20:24;;;;;;;17.00;15.20;;;34.20;24.70;;;;;;5073958;28;20511;-72
2022/05/07 12:31:07;;;;;;;14.63;13.33;;;33.20;26.00;;;;;;5077325;28;20435;-72
2022/05/07 12:33:36;;;;;;;12.43;11.33;;;34.00;25.60;;;;;;5076922;28;20444;-72
2022/05/07 12:36:04;;;;;;;12.53;10.67;;;34.80;24.30;;;;;;5076778;28;20483;-72
2022/05/07 12:38:31;;;;;;;13.33;12.03;;;35.40;23.60;;;;;;5077153;28;20946;-73
2022/05/07 12:40:58;;;;;;;11.00;10.00;;;35.00;22.90;;;;;;5076981;28;20471;-72
2022/05/07 12:43:25;;;;;;;12.33;10.60;;;34.80;22.60;;;;;;5076967;28;20533;-73
2022/05/07 12:45:52;;;;;;;10.70;9.80;;;35.00;23.20;;;;;;5076935;28;20443;-73
2022/05/07 12:48:19;;;;;;;7.80;7.10;;;35.00;22.60;;;;;;5077065;28;20440;-72
2022/05/07 12:50:47;;;;;;;10.60;9.70;;;34.90;23.20;;;;;;5076459;28;20458;-72
2022/05/07 12:53:16;;;;;;;9.83;8.87;;;34.80;22.60;;;;;;5076658;28;20542;-72
2022/05/07 12:55:43;;;;;;;8.50;7.70;;;34.90;23.00;;;;;;5076470;28;20440;-72
2022/05/07 12:58:11;;;;;;;8.40;7.67;;;35.30;23.70;;;;;;5076325;28;20825;-72
2022/05/07 13:00:38;;;;;;;7.30;5.30;;;35.90;23.20;;;;;;5075972;28;20452;-72
2022/05/07 13:03:05;;;;;;;6.83;6.07;;;36.70;22.10;;;;;;5077106;28;20459;-72
2022/05/07 13:05:33;;;;;;;6.10;5.60;;;37.70;21.40;;;;;;5076159;28;20458;-72
2022/05/07 13:08:01;;;;;;;8.93;6.07;;;38.60;19.80;;;;;;5076231;28;20221;-72